sensor_id;sensor_type;location;lat;lon;timestamp;P1;durP1;ratioP1;P2;durP2;ratioP2
9838;SDS011;4958;48.150;11.506;2024-03-29T00:12:39;1.13;;;0.90;;
9838;SDS011;4958;48.150;11.506;2024-03-29T00:15:19;1.10;;;0.90;;
9838;SDS011;4958;48.150;11.506;2024-03-29T00:31:03;1.00;;;0.70;;
9838;SDS011;4958;48.150;11.506;2024-03-29T00:40:14;0.80;;;0.80;;
9838;SDS011;4958;48.150;11.506;2024-03-29T00:46:12;1.00;;;0.80;;
9838;SDS011;4958;48.150;11.506;2024-03-29T00:49:12;0.77;;;0.60;;
9838;SDS011;4958;48.150;11.506;2024-03-29T00:55:27;0.70;;;0.70;;
9838;SDS011;4958;48.150;11.506;2024-03-29T01:04:41;0.50;;;0.50;;
9838;SDS011;4958;48.150;11.506;2024-03-29T01:30:24;0.90;;;0.60;;
9838;SDS011;4958;48.150;11.506;2024-03-29T01:33:15;0.70;;;0.70;;
9838;SDS011;4958;48.150;11.506;2024-03-29T01:40:28;0.70;;;0.70;;
9838;SDS011;4958;48.150;11.506;2024-03-29T01:46:33;0.53;;;0.50;;
9838;SDS011;4958;48.150;11.506;2024-03-29T02:00:10;0.83;;;0.70;;
9838;SDS011;4958;48.150;11.506;2024-03-29T02:06:41;0.60;;;0.60;;
9838;SDS011;4958;48.150;11.506;2024-03-29T02:19:53;0.70;;;0.60;;
9838;SDS011;4958;48.150;11.506;2024-03-29T02:40:34;0.60;;;0.60;;
9838;SDS011;4958;48.150;11.506;2024-03-29T02:43:38;0.60;;;0.60;;
9838;SDS011;4958;48.150;11.506;2024-03-29T02:46:54;0.70;;;0.60;;
9838;SDS011;4958;48.150;11.506;2024-03-29T02:52:42;1.23;;;0.80;;
9838;SDS011;4958;48.150;11.506;2024-03-29T02:55:44;0.73;;;0.70;;
9838;SDS011;4958;48.150;11.506;2024-03-29T03:21:33;0.93;;;0.70;;
9838;SDS011;4958;48.150;11.506;2024-03-29T03:27:58;0.80;;;0.70;;
9838;SDS011;4958;48.150;11.506;2024-03-29T03:31:06;1.80;;;0.70;;
9838;SDS011;4958;48.150;11.506;2024-03-29T03:33:49;0.80;;;0.60;;
9838;SDS011;4958;48.150;11.506;2024-03-29T03:36:55;0.77;;;0.57;;
9838;SDS011;4958;48.150;11.506;2024-03-29T03:45:10;1.30;;;0.57;;
9838;SDS011;4958;48.150;11.506;2024-03-29T03:48:30;0.67;;;0.67;;
9838;SDS011;4958;48.150;11.506;2024-03-29T03:51:03;0.60;;;0.60;;
9838;SDS011;4958;48.150;11.506;2024-03-29T03:56:59;0.60;;;0.60;;
9838;SDS011;4958;48.150;11.506;2024-03-29T04:06:43;0.47;;;0.47;;
9838;SDS011;4958;48.150;11.506;2024-03-29T04:09:27;0.50;;;0.50;;
9838;SDS011;4958;48.150;11.506;2024-03-29T04:12:19;0.70;;;0.70;;
9838;SDS011;4958;48.150;11.506;2024-03-29T04:17:59;0.73;;;0.73;;
9838;SDS011;4958;48.150;11.506;2024-03-29T04:20:35;0.60;;;0.60;;
9838;SDS011;4958;48.150;11.506;2024-03-29T04:23:13;0.70;;;0.70;;
9838;SDS011;4958;48.150;11.506;2024-03-29T04:25:54;0.70;;;0.70;;
9838;SDS011;4958;48.150;11.506;2024-03-29T04:28:33;0.67;;;0.67;;
9838;SDS011;4958;48.150;11.506;2024-03-29T04:31:29;0.60;;;0.60;;
9838;SDS011;4958;48.150;11.506;2024-03-29T04:33:55;0.70;;;0.70;;
9838;SDS011;4958;48.150;11.506;2024-03-29T04:36:28;0.60;;;0.60;;
9838;SDS011;4958;48.150;11.506;2024-03-29T04:39:02;0.80;;;0.80;;
9838;SDS011;4958;48.150;11.506;2024-03-29T04:41:44;0.70;;;0.70;;
9838;SDS011;4958;48.150;11.506;2024-03-29T04:44:39;0.80;;;0.80;;
9838;SDS011;4958;48.150;11.506;2024-03-29T04:47:34;1.07;;;0.97;;
9838;SDS011;4958;48.150;11.506;2024-03-29T04:50:14;0.90;;;0.90;;
9838;SDS011;4958;48.150;11.506;2024-03-29T04:52:57;0.83;;;0.70;;
9838;SDS011;4958;48.150;11.506;2024-03-29T04:56:09;0.73;;;0.70;;
9838;SDS011;4958;48.150;11.506;2024-03-29T04:59:06;0.80;;;0.80;;
9838;SDS011;4958;48.150;11.506;2024-03-29T05:01:52;1.10;;;0.90;;
9838;SDS011;4958;48.150;11.506;2024-03-29T05:04:32;0.70;;;0.70;;
9838;SDS011;4958;48.150;11.506;2024-03-29T05:07:00;0.80;;;0.80;;
9838;SDS011;4958;48.150;11.506;2024-03-29T05:09:46;0.97;;;0.90;;
9838;SDS011;4958;48.150;11.506;2024-03-29T05:15:35;0.83;;;0.80;;
9838;SDS011;4958;48.150;11.506;2024-03-29T05:24:26;0.80;;;0.73;;
9838;SDS011;4958;48.150;11.506;2024-03-29T05:27:11;1.00;;;1.00;;
9838;SDS011;4958;48.150;11.506;2024-03-29T05:30:21;0.70;;;0.70;;
9838;SDS011;4958;48.150;11.506;2024-03-29T05:32:57;1.00;;;0.77;;
9838;SDS011;4958;48.150;11.506;2024-03-29T05:42:43;0.70;;;0.70;;
9838;SDS011;4958;48.150;11.506;2024-03-29T05:45:53;0.70;;;0.70;;
9838;SDS011;4958;48.150;11.506;2024-03-29T05:48:36;0.70;;;0.70;;
9838;SDS011;4958;48.150;11.506;2024-03-29T05:51:32;0.80;;;0.80;;
9838;SDS011;4958;48.150;11.506;2024-03-29T05:54:18;0.73;;;0.73;;
9838;SDS011;4958;48.150;11.506;2024-03-29T05:56:55;1.13;;;0.90;;
9838;SDS011;4958;48.150;11.506;2024-03-29T05:59:38;0.80;;;0.80;;
9838;SDS011;4958;48.150;11.506;2024-03-29T06:02:20;1.43;;;0.90;;
9838;SDS011;4958;48.150;11.506;2024-03-29T06:04:48;0.70;;;0.70;;
9838;SDS011;4958;48.150;11.506;2024-03-29T06:07:29;0.80;;;0.80;;
9838;SDS011;4958;48.150;11.506;2024-03-29T06:13:13;0.60;;;0.60;;
9838;SDS011;4958;48.150;11.506;2024-03-29T06:15:56;0.80;;;0.80;;
9838;SDS011;4958;48.150;11.506;2024-03-29T06:18:41;0.80;;;0.80;;
9838;SDS011;4958;48.150;11.506;2024-03-29T06:21:12;0.70;;;0.67;;
9838;SDS011;4958;48.150;11.506;2024-03-29T06:23:48;1.10;;;1.00;;
9838;SDS011;4958;48.150;11.506;2024-03-29T06:26:40;1.13;;;0.90;;
9838;SDS011;4958;48.150;11.506;2024-03-29T06:29:51;0.80;;;0.80;;
9838;SDS011;4958;48.150;11.506;2024-03-29T06:32:58;0.70;;;0.70;;
9838;SDS011;4958;48.150;11.506;2024-03-29T06:35:41;0.97;;;0.87;;
9838;SDS011;4958;48.150;11.506;2024-03-29T06:38:58;0.60;;;0.60;;
9838;SDS011;4958;48.150;11.506;2024-03-29T06:41:38;0.77;;;0.77;;
9838;SDS011;4958;48.150;11.506;2024-03-29T06:47:53;1.10;;;0.97;;
9838;SDS011;4958;48.150;11.506;2024-03-29T06:50:40;1.17;;;1.00;;
9838;SDS011;4958;48.150;11.506;2024-03-29T06:54:00;1.37;;;1.00;;
9838;SDS011;4958;48.150;11.506;2024-03-29T07:03:30;0.90;;;0.90;;
9838;SDS011;4958;48.150;11.506;2024-03-29T07:13:00;0.80;;;0.80;;
9838;SDS011;4958;48.150;11.506;2024-03-29T07:21:30;0.77;;;0.77;;
9838;SDS011;4958;48.150;11.506;2024-03-29T07:22:35;0.90;;;0.90;;
9838;SDS011;4958;48.150;11.506;2024-03-29T07:25:23;1.60;;;0.90;;
9838;SDS011;4958;48.150;11.506;2024-03-29T07:37:40;0.90;;;0.90;;
9838;SDS011;4958;48.150;11.506;2024-03-29T07:41:55;0.77;;;0.77;;
9838;SDS011;4958;48.150;11.506;2024-03-29T07:43:52;0.80;;;0.80;;
9838;SDS011;4958;48.150;11.506;2024-03-29T07:46:36;1.50;;;1.27;;
9838;SDS011;4958;48.150;11.506;2024-03-29T07:50:42;0.90;;;0.90;;
9838;SDS011;4958;48.150;11.506;2024-03-29T07:53:30;0.70;;;0.70;;
9838;SDS011;4958;48.150;11.506;2024-03-29T07:56:36;0.80;;;0.70;;
9838;SDS011;4958;48.150;11.506;2024-03-29T07:59:18;0.80;;;0.80;;
9838;SDS011;4958;48.150;11.506;2024-03-29T08:02:02;0.70;;;0.70;;
9838;SDS011;4958;48.150;11.506;2024-03-29T08:04:52;0.63;;;0.60;;
9838;SDS011;4958;48.150;11.506;2024-03-29T08:07:51;0.80;;;0.80;;
9838;SDS011;4958;48.150;11.506;2024-03-29T08:11:01;0.82;;;0.70;;
9838;SDS011;4958;48.150;11.506;2024-03-29T08:17:26;0.65;;;0.65;;
9838;SDS011;4958;48.150;11.506;2024-03-29T08:23:22;0.70;;;0.70;;
9838;SDS011;4958;48.150;11.506;2024-03-29T08:29:33;0.80;;;0.63;;
9838;SDS011;4958;48.150;11.506;2024-03-29T08:36:26;0.70;;;0.70;;
9838;SDS011;4958;48.150;11.506;2024-03-29T08:39:36;1.73;;;0.65;;
9838;SDS011;4958;48.150;11.506;2024-03-29T08:52:15;0.52;;;0.52;;
9838;SDS011;4958;48.150;11.506;2024-03-29T08:55:41;0.60;;;0.60;;
9838;SDS011;4958;48.150;11.506;2024-03-29T09:12:10;0.65;;;0.50;;
9838;SDS011;4958;48.150;11.506;2024-03-29T09:16:14;0.75;;;0.60;;
9838;SDS011;4958;48.150;11.506;2024-03-29T09:20:08;0.77;;;0.77;;
9838;SDS011;4958;48.150;11.506;2024-03-29T09:32:47;0.70;;;0.70;;
9838;SDS011;4958;48.150;11.506;2024-03-29T09:37:08;1.17;;;0.70;;
9838;SDS011;4958;48.150;11.506;2024-03-29T10:15:46;0.75;;;0.68;;
9838;SDS011;4958;48.150;11.506;2024-03-29T10:22:18;1.45;;;0.60;;
9838;SDS011;4958;48.150;11.506;2024-03-29T10:25:08;0.75;;;0.60;;
9838;SDS011;4958;48.150;11.506;2024-03-29T10:28:38;1.08;;;0.75;;
9838;SDS011;4958;48.150;11.506;2024-03-29T10:31:50;0.60;;;0.60;;
9838;SDS011;4958;48.150;11.506;2024-03-29T10:36:03;0.60;;;0.60;;
9838;SDS011;4958;48.150;11.506;2024-03-29T10:44:09;1.15;;;0.70;;
9838;SDS011;4958;48.150;11.506;2024-03-29T10:53:38;1.38;;;0.60;;
9838;SDS011;4958;48.150;11.506;2024-03-29T11:03:26;0.60;;;0.60;;
9838;SDS011;4958;48.150;11.506;2024-03-29T11:24:55;0.60;;;0.60;;
9838;SDS011;4958;48.150;11.506;2024-03-29T11:28:31;0.50;;;0.50;;
9838;SDS011;4958;48.150;11.506;2024-03-29T11:31:16;0.55;;;0.50;;
9838;SDS011;4958;48.150;11.506;2024-03-29T11:36:08;0.60;;;0.60;;
9838;SDS011;4958;48.150;11.506;2024-03-29T11:42:03;0.98;;;0.73;;
9838;SDS011;4958;48.150;11.506;2024-03-29T11:48:36;0.75;;;0.60;;
9838;SDS011;4958;48.150;11.506;2024-03-29T11:51:32;0.50;;;0.50;;
9838;SDS011;4958;48.150;11.506;2024-03-29T11:54:38;0.75;;;0.60;;
9838;SDS011;4958;48.150;11.506;2024-03-29T11:57:50;0.75;;;0.70;;
9838;SDS011;4958;48.150;11.506;2024-03-29T12:07:50;0.60;;;0.60;;
9838;SDS011;4958;48.150;11.506;2024-03-29T12:14:18;1.48;;;0.77;;
9838;SDS011;4958;48.150;11.506;2024-03-29T12:34:36;2.05;;;1.08;;
9838;SDS011;4958;48.150;11.506;2024-03-29T12:44:21;0.52;;;0.52;;
9838;SDS011;4958;48.150;11.506;2024-03-29T13:17:22;0.40;;;0.40;;
9838;SDS011;4958;48.150;11.506;2024-03-29T14:29:03;0.40;;;0.40;;
9838;SDS011;4958;48.150;11.506;2024-03-29T14:32:45;0.50;;;0.50;;
9838;SDS011;4958;48.150;11.506;2024-03-29T14:35:42;1.70;;;0.75;;
9838;SDS011;4958;48.150;11.506;2024-03-29T14:41:50;0.35;;;0.35;;
9838;SDS011;4958;48.150;11.506;2024-03-29T14:47:30;0.40;;;0.40;;
9838;SDS011;4958;48.150;11.506;2024-03-29T14:53:04;0.50;;;0.50;;
9838;SDS011;4958;48.150;11.506;2024-03-29T14:55:59;0.40;;;0.40;;
9838;SDS011;4958;48.150;11.506;2024-03-29T15:08:33;1.20;;;0.50;;
9838;SDS011;4958;48.150;11.506;2024-03-29T15:11:51;0.50;;;0.50;;
9838;SDS011;4958;48.150;11.506;2024-03-29T15:17:03;0.40;;;0.40;;
9838;SDS011;4958;48.150;11.506;2024-03-29T15:21:50;0.40;;;0.40;;
9838;SDS011;4958;48.150;11.506;2024-03-29T15:31:19;0.35;;;0.35;;
9838;SDS011;4958;48.150;11.506;2024-03-29T15:34:35;2.05;;;0.40;;
9838;SDS011;4958;48.150;11.506;2024-03-29T15:44:40;0.60;;;0.50;;
9838;SDS011;4958;48.150;11.506;2024-03-29T15:46:43;0.47;;;0.40;;
9838;SDS011;4958;48.150;11.506;2024-03-29T15:56:13;2.25;;;0.80;;
9838;SDS011;4958;48.150;11.506;2024-03-29T15:59:19;4.00;;;0.95;;
9838;SDS011;4958;48.150;11.506;2024-03-29T16:02:17;2.55;;;1.00;;
9838;SDS011;4958;48.150;11.506;2024-03-29T16:04:50;5.40;;;1.00;;
9838;SDS011;4958;48.150;11.506;2024-03-29T16:07:21;3.25;;;1.00;;
9838;SDS011;4958;48.150;11.506;2024-03-29T16:09:58;3.30;;;0.82;;
9838;SDS011;4958;48.150;11.506;2024-03-29T16:12:50;5.18;;;1.23;;
9838;SDS011;4958;48.150;11.506;2024-03-29T16:15:19;8.43;;;1.27;;
9838;SDS011;4958;48.150;11.506;2024-03-29T16:17:45;6.13;;;1.90;;
9838;SDS011;4958;48.150;11.506;2024-03-29T16:20:11;4.30;;;1.45;;
9838;SDS011;4958;48.150;11.506;2024-03-29T16:22:43;4.85;;;1.10;;
9838;SDS011;4958;48.150;11.506;2024-03-29T16:25:50;7.20;;;1.60;;
9838;SDS011;4958;48.150;11.506;2024-03-29T16:28:48;9.77;;;2.08;;
9838;SDS011;4958;48.150;11.506;2024-03-29T16:31:34;10.18;;;2.42;;
9838;SDS011;4958;48.150;11.506;2024-03-29T16:34:14;6.03;;;1.95;;
9838;SDS011;4958;48.150;11.506;2024-03-29T16:37:37;9.20;;;2.13;;
9838;SDS011;4958;48.150;11.506;2024-03-29T16:40:26;12.18;;;2.67;;
9838;SDS011;4958;48.150;11.506;2024-03-29T16:43:20;9.88;;;2.65;;
9838;SDS011;4958;48.150;11.506;2024-03-29T16:46:01;17.55;;;3.03;;
9838;SDS011;4958;48.150;11.506;2024-03-29T16:48:53;11.90;;;2.80;;
9838;SDS011;4958;48.150;11.506;2024-03-29T16:51:29;20.75;;;4.03;;
9838;SDS011;4958;48.150;11.506;2024-03-29T16:53:55;16.30;;;3.28;;
9838;SDS011;4958;48.150;11.506;2024-03-29T16:56:28;15.32;;;3.22;;
9838;SDS011;4958;48.150;11.506;2024-03-29T16:58:53;17.80;;;3.83;;
9838;SDS011;4958;48.150;11.506;2024-03-29T17:01:26;18.98;;;4.00;;
9838;SDS011;4958;48.150;11.506;2024-03-29T17:04:03;23.35;;;3.80;;
9838;SDS011;4958;48.150;11.506;2024-03-29T17:06:47;25.38;;;5.10;;
9838;SDS011;4958;48.150;11.506;2024-03-29T17:09:13;25.45;;;4.57;;
9838;SDS011;4958;48.150;11.506;2024-03-29T17:12:13;30.20;;;5.82;;
9838;SDS011;4958;48.150;11.506;2024-03-29T17:14:53;32.03;;;6.90;;
9838;SDS011;4958;48.150;11.506;2024-03-29T17:17:32;34.40;;;6.40;;
9838;SDS011;4958;48.150;11.506;2024-03-29T17:19:58;28.00;;;6.25;;
9838;SDS011;4958;48.150;11.506;2024-03-29T17:22:32;36.22;;;7.45;;
9838;SDS011;4958;48.150;11.506;2024-03-29T17:25:09;31.50;;;6.20;;
9838;SDS011;4958;48.150;11.506;2024-03-29T17:31:03;33.72;;;7.22;;
9838;SDS011;4958;48.150;11.506;2024-03-29T17:40:05;31.90;;;6.82;;
9838;SDS011;4958;48.150;11.506;2024-03-29T17:46:35;43.10;;;8.57;;
9838;SDS011;4958;48.150;11.506;2024-03-29T17:49:23;37.60;;;7.63;;
9838;SDS011;4958;48.150;11.506;2024-03-29T17:51:56;48.33;;;8.82;;
9838;SDS011;4958;48.150;11.506;2024-03-29T17:54:35;39.95;;;7.95;;
9838;SDS011;4958;48.150;11.506;2024-03-29T17:57:24;44.33;;;9.05;;
9838;SDS011;4958;48.150;11.506;2024-03-29T18:06:30;60.55;;;11.32;;
9838;SDS011;4958;48.150;11.506;2024-03-29T18:09:23;51.90;;;10.60;;
9838;SDS011;4958;48.150;11.506;2024-03-29T18:12:07;65.68;;;11.85;;
9838;SDS011;4958;48.150;11.506;2024-03-29T18:18:00;62.08;;;11.20;;
9838;SDS011;4958;48.150;11.506;2024-03-29T18:20:33;64.40;;;11.73;;
9838;SDS011;4958;48.150;11.506;2024-03-29T18:23:21;62.70;;;11.52;;
9838;SDS011;4958;48.150;11.506;2024-03-29T18:25:55;63.13;;;11.55;;
9838;SDS011;4958;48.150;11.506;2024-03-29T18:28:22;66.13;;;12.50;;
9838;SDS011;4958;48.150;11.506;2024-03-29T18:30:59;74.18;;;13.82;;
9838;SDS011;4958;48.150;11.506;2024-03-29T18:33:41;74.55;;;14.15;;
9838;SDS011;4958;48.150;11.506;2024-03-29T18:36:11;82.43;;;14.65;;
9838;SDS011;4958;48.150;11.506;2024-03-29T18:38:54;74.72;;;12.77;;
9838;SDS011;4958;48.150;11.506;2024-03-29T18:41:58;63.78;;;13.27;;
9838;SDS011;4958;48.150;11.506;2024-03-29T18:47:12;73.13;;;14.15;;
9838;SDS011;4958;48.150;11.506;2024-03-29T18:50:01;74.13;;;12.73;;
9838;SDS011;4958;48.150;11.506;2024-03-29T18:56:04;77.32;;;13.50;;
9838;SDS011;4958;48.150;11.506;2024-03-29T18:58:34;70.90;;;14.77;;
9838;SDS011;4958;48.150;11.506;2024-03-29T19:01:05;79.68;;;15.10;;
9838;SDS011;4958;48.150;11.506;2024-03-29T19:04:05;89.35;;;15.68;;
9838;SDS011;4958;48.150;11.506;2024-03-29T19:07:26;83.53;;;15.73;;
9838;SDS011;4958;48.150;11.506;2024-03-29T19:13:26;76.15;;;16.10;;
9838;SDS011;4958;48.150;11.506;2024-03-29T19:16:26;86.65;;;16.48;;
9838;SDS011;4958;48.150;11.506;2024-03-29T19:19:13;100.47;;;17.10;;
9838;SDS011;4958;48.150;11.506;2024-03-29T19:21:50;79.60;;;15.27;;
9838;SDS011;4958;48.150;11.506;2024-03-29T19:24:37;80.07;;;15.80;;
9838;SDS011;4958;48.150;11.506;2024-03-29T19:27:18;86.13;;;16.42;;
9838;SDS011;4958;48.150;11.506;2024-03-29T19:30:13;92.72;;;16.08;;
9838;SDS011;4958;48.150;11.506;2024-03-29T19:33:11;92.72;;;16.20;;
9838;SDS011;4958;48.150;11.506;2024-03-29T19:36:02;78.05;;;15.55;;
9838;SDS011;4958;48.150;11.506;2024-03-29T19:39:58;75.45;;;14.65;;
9838;SDS011;4958;48.150;11.506;2024-03-29T19:42:09;84.93;;;14.70;;
9838;SDS011;4958;48.150;11.506;2024-03-29T19:45:03;78.75;;;14.38;;
9838;SDS011;4958;48.150;11.506;2024-03-29T19:53:28;80.25;;;15.27;;
9838;SDS011;4958;48.150;11.506;2024-03-29T19:58:47;88.22;;;15.23;;
9838;SDS011;4958;48.150;11.506;2024-03-29T20:15:40;85.35;;;17.33;;
9838;SDS011;4958;48.150;11.506;2024-03-29T20:18:20;93.97;;;16.67;;
9838;SDS011;4958;48.150;11.506;2024-03-29T20:20:58;90.00;;;17.08;;
9838;SDS011;4958;48.150;11.506;2024-03-29T20:23:55;98.15;;;19.10;;
9838;SDS011;4958;48.150;11.506;2024-03-29T20:26:42;107.18;;;17.25;;
9838;SDS011;4958;48.150;11.506;2024-03-29T20:29:08;101.80;;;17.75;;
9838;SDS011;4958;48.150;11.506;2024-03-29T20:32:21;119.68;;;20.83;;
9838;SDS011;4958;48.150;11.506;2024-03-29T20:35:10;104.25;;;18.42;;
9838;SDS011;4958;48.150;11.506;2024-03-29T20:38:05;113.53;;;19.60;;
9838;SDS011;4958;48.150;11.506;2024-03-29T20:40:36;99.45;;;19.88;;
9838;SDS011;4958;48.150;11.506;2024-03-29T20:48:23;105.68;;;19.73;;
9838;SDS011;4958;48.150;11.506;2024-03-29T21:00:47;114.80;;;20.42;;
9838;SDS011;4958;48.150;11.506;2024-03-29T21:03:48;123.10;;;20.85;;
9838;SDS011;4958;48.150;11.506;2024-03-29T21:10:06;126.78;;;20.40;;
9838;SDS011;4958;48.150;11.506;2024-03-29T21:13:38;112.22;;;19.85;;
9838;SDS011;4958;48.150;11.506;2024-03-29T21:16:25;109.13;;;20.48;;
9838;SDS011;4958;48.150;11.506;2024-03-29T21:28:21;115.45;;;20.50;;
9838;SDS011;4958;48.150;11.506;2024-03-29T21:31:12;112.35;;;21.15;;
9838;SDS011;4958;48.150;11.506;2024-03-29T21:34:19;117.13;;;20.17;;
9838;SDS011;4958;48.150;11.506;2024-03-29T21:40:01;110.72;;;19.98;;
9838;SDS011;4958;48.150;11.506;2024-03-29T21:42:42;112.75;;;21.33;;
9838;SDS011;4958;48.150;11.506;2024-03-29T21:45:15;131.63;;;20.90;;
9838;SDS011;4958;48.150;11.506;2024-03-29T21:48:01;103.50;;;18.70;;
9838;SDS011;4958;48.150;11.506;2024-03-29T21:50:44;120.32;;;21.17;;
9838;SDS011;4958;48.150;11.506;2024-03-29T22:01:55;125.78;;;22.15;;
9838;SDS011;4958;48.150;11.506;2024-03-29T22:04:30;106.65;;;18.73;;
9838;SDS011;4958;48.150;11.506;2024-03-29T22:07:29;110.55;;;18.65;;
9838;SDS011;4958;48.150;11.506;2024-03-29T22:13:23;115.88;;;20.98;;
9838;SDS011;4958;48.150;11.506;2024-03-29T22:16:25;110.72;;;19.92;;
9838;SDS011;4958;48.150;11.506;2024-03-29T22:18:51;115.35;;;20.13;;
9838;SDS011;4958;48.150;11.506;2024-03-29T22:21:35;117.90;;;19.55;;
9838;SDS011;4958;48.150;11.506;2024-03-29T22:24:06;110.25;;;20.00;;
9838;SDS011;4958;48.150;11.506;2024-03-29T22:26:36;109.45;;;20.02;;
9838;SDS011;4958;48.150;11.506;2024-03-29T22:29:31;109.00;;;19.35;;
9838;SDS011;4958;48.150;11.506;2024-03-29T22:32:18;99.72;;;18.65;;
9838;SDS011;4958;48.150;11.506;2024-03-29T22:34:46;107.70;;;18.15;;
9838;SDS011;4958;48.150;11.506;2024-03-29T22:37:18;109.55;;;18.88;;
9838;SDS011;4958;48.150;11.506;2024-03-29T22:39:44;91.20;;;17.30;;
9838;SDS011;4958;48.150;11.506;2024-03-29T22:42:30;91.78;;;16.67;;
9838;SDS011;4958;48.150;11.506;2024-03-29T22:45:19;110.78;;;19.10;;
9838;SDS011;4958;48.150;11.506;2024-03-29T22:51:03;106.85;;;18.17;;
9838;SDS011;4958;48.150;11.506;2024-03-29T22:54:12;92.60;;;17.50;;
9838;SDS011;4958;48.150;11.506;2024-03-29T22:56:55;100.68;;;16.98;;
9838;SDS011;4958;48.150;11.506;2024-03-29T22:59:45;106.63;;;18.02;;
9838;SDS011;4958;48.150;11.506;2024-03-29T23:02:13;99.55;;;17.90;;
9838;SDS011;4958;48.150;11.506;2024-03-29T23:04:56;101.65;;;17.67;;
9838;SDS011;4958;48.150;11.506;2024-03-29T23:07:27;95.38;;;18.05;;
9838;SDS011;4958;48.150;11.506;2024-03-29T23:10:09;108.25;;;18.00;;
9838;SDS011;4958;48.150;11.506;2024-03-29T23:12:54;89.22;;;17.58;;
9838;SDS011;4958;48.150;11.506;2024-03-29T23:15:26;89.95;;;17.58;;
9838;SDS011;4958;48.150;11.506;2024-03-29T23:17:58;102.15;;;16.80;;
9838;SDS011;4958;48.150;11.506;2024-03-29T23:23:22;108.28;;;18.17;;
9838;SDS011;4958;48.150;11.506;2024-03-29T23:25:48;97.07;;;17.08;;
9838;SDS011;4958;48.150;11.506;2024-03-29T23:28:16;97.30;;;17.02;;
9838;SDS011;4958;48.150;11.506;2024-03-29T23:30:43;93.30;;;17.33;;
9838;SDS011;4958;48.150;11.506;2024-03-29T23:33:09;90.32;;;17.17;;
9838;SDS011;4958;48.150;11.506;2024-03-29T23:35:40;100.40;;;18.50;;
9838;SDS011;4958;48.150;11.506;2024-03-29T23:38:11;85.95;;;16.60;;
9838;SDS011;4958;48.150;11.506;2024-03-29T23:40:51;99.82;;;16.90;;
9838;SDS011;4958;48.150;11.506;2024-03-29T23:43:29;106.25;;;18.98;;
9838;SDS011;4958;48.150;11.506;2024-03-29T23:46:00;95.80;;;18.60;;
9838;SDS011;4958;48.150;11.506;2024-03-29T23:48:26;102.22;;;16.83;;
9838;SDS011;4958;48.150;11.506;2024-03-29T23:51:00;104.13;;;17.55;;
9838;SDS011;4958;48.150;11.506;2024-03-29T23:53:56;88.25;;;17.35;;
9838;SDS011;4958;48.150;11.506;2024-03-29T23:56:33;96.00;;;16.83;;
9838;SDS011;4958;48.150;11.506;2024-03-29T23:59:07;94.18;;;16.60;;
